Time;durP1;ratioP1;P1;durP2;ratioP2;P2;SDS_P1;SDS_P2;PMS_P1;PMS_P2;Temp;Humidity;BMP_temperature;BMP_pressure;BME280_temperature;BME280_humidity;BME280_pressure;Samples;Min_cycle;Max_cycle;Signal;HPM_P1;HPM_P2
2021/06/17 00:00:27;;;;;;;15.32;13.48;;;;;;;20.77;68.05;100658.00;4886976;28;127244;-69
2021/06/17 00:02:54;;;;;;;13.85;12.60;;;;;;;20.87;67.91;100666.94;4910262;28;98042;-69
2021/06/17 00:05:21;;;;;;;16.70;13.95;;;;;;;20.89;67.98;100664.69;4941360;28;98351;-71
2021/06/17 00:07:47;;;;;;;14.52;13.23;;;;;;;20.90;68.15;100669.03;4941325;28;121674;-69
2021/06/17 00:10:36;;;;;;;15.18;13.68;;;;;;;20.91;68.00;100665.97;4940074;28;97776;-69
2021/06/17 00:13:06;;;;;;;14.75;13.25;;;;;;;20.82;68.07;100665.22;4921411;28;98140;-71
2021/06/17 00:15:33;;;;;;;14.38;13.07;;;;;;;20.76;68.34;100680.25;4920958;28;112125;-69
2021/06/17 00:17:59;;;;;;;15.10;13.52;;;;;;;20.77;68.29;100671.69;4930739;28;111289;-71
2021/06/17 00:20:25;;;;;;;15.25;13.73;;;;;;;20.59;68.75;100678.38;4922283;28;127621;-71
2021/06/17 00:22:52;;;;;;;15.13;13.65;;;;;;;20.38;69.59;100677.47;4922938;28;98359;-71
2021/06/17 00:25:18;;;;;;;15.57;13.95;;;;;;;20.64;69.19;100669.19;4919672;28;98221;-71
2021/06/17 00:27:44;;;;;;;15.05;13.50;;;;;;;20.25;69.93;100665.63;4894455;28;109246;-69
2021/06/17 00:30:11;;;;;;;16.38;14.48;;;;;;;20.46;69.69;100662.97;4891521;28;100301;-71
2021/06/17 00:32:37;;;;;;;16.00;14.30;;;;;;;20.45;69.88;100662.16;4936278;28;98529;-69
2021/06/17 00:35:05;;;;;;;15.63;14.13;;;;;;;20.07;70.83;100662.13;4919484;28;106693;-71
2021/06/17 00:37:31;;;;;;;15.60;14.10;;;;;;;19.99;70.88;100661.03;4921849;28;113141;-69
2021/06/17 00:39:59;;;;;;;16.17;14.63;;;;;;;20.03;70.71;100666.66;4928590;28;113987;-71
2021/06/17 00:42:25;;;;;;;17.73;14.93;;;;;;;20.12;70.45;100664.69;4888713;28;97958;-69
2021/06/17 00:44:52;;;;;;;15.60;14.00;;;;;;;20.21;70.24;100664.69;4921751;28;98675;-71
2021/06/17 00:47:18;;;;;;;20.88;15.23;;;;;;;20.07;70.90;100671.13;4921769;28;112696;-71
2021/06/17 00:49:44;;;;;;;15.93;14.38;;;;;;;20.09;70.63;100668.88;4918604;28;127543;-70
2021/06/17 00:52:10;;;;;;;16.20;14.60;;;;;;;19.94;70.97;100660.41;4920792;28;117634;-69
2021/06/17 00:54:36;;;;;;;16.58;14.65;;;;;;;19.85;71.25;100669.44;4920821;28;127213;-69
2021/06/17 00:57:07;;;;;;;15.77;14.25;;;;;;;19.47;72.07;100663.81;4920968;28;115071;-71
2021/06/17 00:59:34;;;;;;;17.00;15.23;;;;;;;19.66;72.36;100665.44;4889163;28;99215;-71
2021/06/17 01:02:00;;;;;;;16.13;14.65;;;;;;;19.46;72.62;100664.94;4919351;28;98206;-71
2021/06/17 01:04:27;;;;;;;16.02;14.43;;;;;;;19.75;72.16;100666.22;4903141;28;107727;-71
2021/06/17 01:06:54;;;;;;;18.00;16.20;;;;;;;19.67;72.29;100665.09;4926165;28;98799;-69
2021/06/17 01:09:32;;;;;;;17.02;15.23;;;;;;;19.67;72.16;100665.09;4923863;28;111737;-69
2021/06/17 01:12:27;;;;;;;18.30;16.15;;;;;;;19.65;72.43;100661.91;4922014;28;97852;-69
2021/06/17 01:15:04;;;;;;;15.93;14.43;;;;;;;19.68;72.14;100658.50;4926399;28;110169;-69
2021/06/17 01:17:32;;;;;;;17.23;15.15;;;;;;;19.50;72.33;100667.84;4936224;28;103084;-69
2021/06/17 01:20:20;;;;;;;17.15;15.45;;;;;;;19.27;72.73;100662.53;4918104;28;97994;-69
2021/06/17 01:23:09;;;;;;;16.27;14.75;;;;;;;19.42;72.61;100663.19;4921719;28;105809;-69
2021/06/17 01:25:41;;;;;;;17.05;15.40;;;;;;;19.48;72.29;100670.06;4936571;28;98228;-70
2021/06/17 01:28:16;;;;;;;16.50;15.00;;;;;;;19.46;72.57;100659.47;4921129;28;98874;-69
2021/06/17 01:31:18;;;;;;;18.23;16.42;;;;;;;19.25;73.82;100664.75;4903028;28;98270;-71
2021/06/17 01:33:45;;;;;;;17.15;15.45;;;;;;;19.51;72.44;100651.09;4935059;28;99576;-69
2021/06/17 01:36:35;;;;;;;17.38;15.73;;;;;;;19.10;73.62;100657.06;4922362;28;100292;-71
2021/06/17 01:39:05;;;;;;;18.13;16.38;;;;;;;18.98;74.50;100654.94;4921969;28;99149;-70
2021/06/17 01:41:34;;;;;;;17.80;16.08;;;;;;;19.26;73.63;100657.38;4939035;28;113479;-69
2021/06/17 01:44:00;;;;;;;18.42;16.52;;;;;;;19.03;74.22;100648.53;4938314;28;108428;-69
2021/06/17 01:46:27;;;;;;;18.40;16.45;;;;;;;18.87;75.01;100654.44;4906972;28;97944;-72
2021/06/17 01:48:54;;;;;;;17.35;15.75;;;;;;;19.02;74.73;100649.63;4888575;28;99028;-71
2021/06/17 01:51:21;;;;;;;18.80;16.92;;;;;;;18.91;74.99;100653.81;4902373;28;98584;-71
2021/06/17 01:53:48;;;;;;;19.08;17.05;;;;;;;19.15;74.36;100654.16;4935271;28;98066;-71
2021/06/17 01:56:15;;;;;;;18.98;17.05;;;;;;;18.82;75.45;100660.06;4920168;28;98151;-72
2021/06/17 01:58:41;;;;;;;19.60;17.55;;;;;;;19.10;74.42;100655.13;4887318;28;98826;-71
2021/06/17 02:01:07;;;;;;;18.30;16.65;;;;;;;18.92;74.85;100652.69;4904070;28;124240;-69
2021/06/17 02:03:33;;;;;;;19.85;17.85;;;;;;;18.53;76.31;100646.91;4906021;28;98482;-69
2021/06/17 02:06:00;;;;;;;18.95;17.15;;;;;;;18.79;75.55;100651.69;4922571;28;98265;-69
2021/06/17 02:08:26;;;;;;;19.42;17.63;;;;;;;18.64;75.83;100644.72;4922211;28;99005;-70
2021/06/17 02:10:52;;;;;;;18.80;16.85;;;;;;;18.99;74.93;100653.00;4937905;28;126991;-69
2021/06/17 02:13:19;;;;;;;19.85;17.55;;;;;;;18.60;75.64;100647.28;4915786;28;117689;-71
2021/06/17 02:15:46;;;;;;;19.70;17.70;;;;;;;18.44;76.24;100651.56;4920546;28;98813;-69
2021/06/17 02:18:14;;;;;;;19.15;17.25;;;;;;;18.91;75.01;100634.69;4920982;28;103332;-71
2021/06/17 02:20:40;;;;;;;19.42;17.52;;;;;;;18.91;74.85;100634.69;4918960;28;98240;-69
2021/06/17 02:23:13;;;;;;;19.20;17.40;;;;;;;18.51;75.61;100641.00;4929970;28;97792;-71
2021/06/17 02:25:39;;;;;;;18.90;17.17;;;;;;;18.47;75.81;100640.00;4938570;28;98664;-69
2021/06/17 02:28:14;;;;;;;19.05;17.25;;;;;;;18.67;75.40;100649.56;4936887;28;120047;-69
2021/06/17 02:30:41;;;;;;;19.05;17.15;;;;;;;18.77;75.14;100638.34;4938489;28;97991;-71
2021/06/17 02:33:10;;;;;;;19.08;17.35;;;;;;;18.75;74.92;100639.81;4927423;28;98287;-71
2021/06/17 02:35:37;;;;;;;19.38;17.50;;;;;;;18.57;75.64;100644.38;4918481;28;112215;-69
2021/06/17 02:38:06;;;;;;;18.98;17.13;;;;;;;18.84;74.94;100638.69;4924376;28;117336;-70
2021/06/17 02:40:38;;;;;;;19.85;17.05;;;;;;;18.76;75.09;100631.28;4938988;28;98268;-71
2021/06/17 02:43:10;;;;;;;19.55;17.73;;;;;;;18.75;74.74;100637.06;4924786;28;97869;-71
2021/06/17 02:45:36;;;;;;;22.43;18.53;;;;;;;18.75;75.30;100637.88;4925224;28;98617;-69
2021/06/17 02:48:02;;;;;;;19.83;17.00;;;;;;;18.71;74.66;100634.16;4922424;28;128910;-71
2021/06/17 02:50:28;;;;;;;18.55;16.70;;;;;;;18.94;74.53;100625.84;4939803;28;98548;-69
2021/06/17 02:52:54;;;;;;;19.17;17.33;;;;;;;19.07;74.25;100631.16;4931350;28;115766;-69
2021/06/17 02:55:20;;;;;;;19.33;17.33;;;;;;;19.03;74.03;100623.94;4943029;28;98976;-71
2021/06/17 02:58:10;;;;;;;19.85;17.08;;;;;;;18.83;74.63;100628.88;4940517;28;126485;-70
2021/06/17 03:00:37;;;;;;;18.80;16.98;;;;;;;18.99;74.33;100631.97;4940779;28;114494;-69
2021/06/17 03:03:15;;;;;;;19.25;17.35;;;;;;;18.99;74.22;100625.72;4916810;28;117556;-71
2021/06/17 03:05:46;;;;;;;18.80;16.95;;;;;;;18.92;74.53;100628.91;4904896;28;98847;-71
2021/06/17 03:08:35;;;;;;;19.05;17.15;;;;;;;19.16;73.43;100630.38;4921388;28;98158;-71
2021/06/17 03:11:07;;;;;;;18.15;16.65;;;;;;;19.13;73.34;100621.69;4938059;28;98393;-71
2021/06/17 03:13:34;;;;;;;19.30;17.50;;;;;;;18.93;73.83;100624.25;4942138;28;98029;-69
2021/06/17 03:16:00;;;;;;;18.73;17.02;;;;;;;18.98;73.48;100624.91;4908186;28;116816;-69
2021/06/17 03:18:26;;;;;;;19.05;17.23;;;;;;;19.00;74.02;100633.56;4930202;28;114123;-71
2021/06/17 03:20:53;;;;;;;18.65;16.98;;;;;;;19.10;73.47;100629.75;4904107;28;126673;-69
2021/06/17 03:23:20;;;;;;;18.90;17.25;;;;;;;18.96;73.52;100629.06;4900585;28;98072;-69
2021/06/17 03:25:54;;;;;;;18.90;17.10;;;;;;;19.06;72.94;100623.28;4925207;28;98195;-69
2021/06/17 03:28:22;;;;;;;18.15;16.45;;;;;;;19.13;73.28;100629.88;4910602;28;115805;-71
2021/06/17 03:30:49;;;;;;;18.80;16.75;;;;;;;19.09;73.07;100626.19;4922705;28;98328;-69
2021/06/17 03:33:18;;;;;;;18.88;17.00;;;;;;;19.23;72.93;100630.69;4900328;28;106873;-70
2021/06/17 03:35:46;;;;;;;18.58;16.55;;;;;;;19.07;73.20;100631.16;4908451;28;98698;-70
2021/06/17 03:38:13;;;;;;;18.88;17.02;;;;;;;19.20;72.84;100623.13;4923533;28;98155;-71
2021/06/17 03:40:39;;;;;;;18.98;17.15;;;;;;;19.27;72.60;100629.72;4923895;28;98115;-71
2021/06/17 03:43:05;;;;;;;19.48;17.30;;;;;;;19.22;72.53;100626.38;4922925;28;119273;-71
2021/06/17 03:45:31;;;;;;;18.60;16.80;;;;;;;19.27;72.51;100631.66;4902796;28;101046;-70
2021/06/17 03:47:57;;;;;;;18.02;16.40;;;;;;;19.34;72.44;100632.78;4911930;28;127668;-70
2021/06/17 03:50:24;;;;;;;17.42;15.82;;;;;;;19.22;72.34;100640.81;4941613;28;99006;-72
2021/06/17 03:52:50;;;;;;;17.10;15.50;;;;;;;19.29;72.29;100638.41;4907205;28;98094;-70
2021/06/17 03:55:17;;;;;;;18.10;16.38;;;;;;;19.41;71.39;100635.00;4923643;28;115523;-71
2021/06/17 03:57:45;;;;;;;16.92;15.23;;;;;;;19.32;71.39;100636.97;4939899;28;97893;-70
2021/06/17 04:00:12;;;;;;;17.73;16.13;;;;;;;19.26;71.79;100641.78;4908114;28;97972;-70
2021/06/17 04:02:39;;;;;;;18.30;16.55;;;;;;;19.47;70.89;100641.94;4940276;28;97948;-70
2021/06/17 04:05:06;;;;;;;17.10;15.48;;;;;;;19.71;70.17;100640.66;4942096;28;110952;-70
2021/06/17 04:07:32;;;;;;;16.98;15.27;;;;;;;19.57;70.41;100643.53;4938635;28;99408;-70
2021/06/17 04:10:00;;;;;;;17.42;15.73;;;;;;;19.73;70.17;100646.59;4907661;28;98740;-70
2021/06/17 04:12:28;;;;;;;17.45;15.73;;;;;;;19.77;69.95;100644.84;4940519;28;98658;-70
2021/06/17 04:14:54;;;;;;;17.05;15.35;;;;;;;19.95;69.21;100651.84;4924072;28;99487;-70
2021/06/17 04:17:28;;;;;;;16.63;15.13;;;;;;;19.84;69.13;100643.19;4874438;28;101368;-70
2021/06/17 04:19:55;;;;;;;16.45;14.80;;;;;;;20.00;68.79;100651.72;4920182;28;98025;-71
2021/06/17 04:22:23;;;;;;;16.15;14.75;;;;;;;19.97;68.72;100646.88;4920500;28;97851;-70
2021/06/17 04:25:00;;;;;;;16.50;14.85;;;;;;;20.05;68.51;100645.25;4903575;28;99442;-70
2021/06/17 04:27:26;;;;;;;16.25;14.75;;;;;;;20.16;68.29;100641.03;4902239;28;120002;-70
2021/06/17 04:29:52;;;;;;;16.10;14.60;;;;;;;20.28;68.01;100643.09;4923242;28;126349;-70
2021/06/17 04:32:18;;;;;;;15.93;14.52;;;;;;;20.43;67.24;100641.72;4937708;28;98121;-70
2021/06/17 04:34:44;;;;;;;17.00;15.40;;;;;;;20.43;67.80;100639.78;4937487;28;126870;-70
2021/06/17 04:37:14;;;;;;;16.65;15.13;;;;;;;20.55;66.77;100648.13;4903814;28;97878;-71
2021/06/17 04:39:40;;;;;;;17.27;14.65;;;;;;;20.45;66.85;100643.00;4935423;28;112781;-70
2021/06/17 04:42:09;;;;;;;15.85;14.23;;;;;;;20.47;66.52;100648.94;4939235;28;98930;-70
2021/06/17 04:44:39;;;;;;;14.63;13.43;;;;;;;20.51;66.55;100647.16;4935987;28;99179;-71
2021/06/17 04:47:06;;;;;;;14.80;13.43;;;;;;;20.69;66.23;100656.09;4930775;28;99213;-71
2021/06/17 04:49:43;;;;;;;15.68;13.73;;;;;;;20.83;66.03;100655.88;4932812;28;112962;-71
2021/06/17 04:52:20;;;;;;;14.23;12.82;;;;;;;20.86;65.67;100654.41;4936089;28;98156;-71
2021/06/17 04:54:46;;;;;;;14.82;13.32;;;;;;;20.97;65.09;100661.91;4921943;28;98561;-71
2021/06/17 04:57:12;;;;;;;14.93;13.32;;;;;;;21.12;64.49;100665.19;4928887;28;126403;-71
2021/06/17 04:59:38;;;;;;;14.13;12.82;;;;;;;21.19;64.09;100660.78;4937264;28;126593;-71
2021/06/17 05:02:05;;;;;;;14.30;12.85;;;;;;;21.25;64.02;100664.91;4933097;28;105855;-71
2021/06/17 05:04:31;;;;;;;13.95;12.55;;;;;;;21.36;63.52;100664.56;4933671;28;128251;-71
2021/06/17 05:07:22;;;;;;;15.02;12.40;;;;;;;21.55;63.42;100664.88;4938199;28;98310;-71
2021/06/17 05:12:30;;;;;;;12.88;11.57;;;;;;;21.96;61.42;100674.16;4933713;28;98006;-71
2021/06/17 05:14:56;;;;;;;13.02;11.20;;;;;;;22.04;61.05;100678.75;4896159;28;126542;-71
2021/06/17 05:17:22;;;;;;;12.88;11.40;;;;;;;22.17;60.88;100676.88;4919081;28;107364;-71
2021/06/17 05:19:48;;;;;;;12.73;11.40;;;;;;;22.29;60.26;100683.19;4936314;28;126147;-71
2021/06/17 05:22:15;;;;;;;11.43;10.40;;;;;;;22.40;60.19;100675.31;4937004;28;116774;-71
2021/06/17 05:24:41;;;;;;;12.20;11.00;;;;;;;22.61;58.87;100672.44;4906477;28;98674;-71
2021/06/17 05:27:08;;;;;;;11.35;10.35;;;;;;;22.63;58.88;100683.06;4920960;28;98352;-71
2021/06/17 05:29:34;;;;;;;13.43;10.30;;;;;;;22.87;57.44;100683.09;4921294;28;127342;-71
2021/06/17 05:32:00;;;;;;;11.45;9.90;;;;;;;23.03;57.08;100684.00;4938633;28;115282;-71
2021/06/17 05:34:26;;;;;;;11.32;10.23;;;;;;;23.26;56.83;100688.97;4920026;28;126568;-71
2021/06/17 05:36:52;;;;;;;10.80;9.73;;;;;;;23.34;56.72;100693.53;4903494;28;98584;-71
2021/06/17 05:39:18;;;;;;;10.40;9.50;;;;;;;23.52;56.03;100686.63;4920038;28;116931;-71
2021/06/17 05:41:44;;;;;;;10.95;9.80;;;;;;;23.61;55.50;100693.94;4933345;28;98580;-72
2021/06/17 05:44:10;;;;;;;11.02;9.35;;;;;;;23.81;54.74;100694.91;4937960;28;98063;-71
2021/06/17 05:46:45;;;;;;;9.82;8.82;;;;;;;24.39;53.83;100695.28;4922267;28;116332;-71
2021/06/17 05:49:11;;;;;;;9.93;8.93;;;;;;;25.17;51.27;100697.16;4938662;28;98163;-71
2021/06/17 05:51:37;;;;;;;9.30;8.40;;;;;;;25.39;50.63;100692.91;4938186;28;98322;-72
2021/06/17 05:54:03;;;;;;;9.60;8.38;;;;;;;26.65;46.80;100698.81;4940253;28;98528;-72
2021/06/17 05:56:30;;;;;;;10.13;8.40;;;;;;;27.30;45.51;100697.81;4938038;28;107512;-72
2021/06/17 05:58:56;;;;;;;8.75;7.95;;;;;;;28.35;42.79;100699.38;4921405;28;98336;-72
2021/06/17 06:01:22;;;;;;;8.50;7.70;;;;;;;29.91;40.01;100705.44;4941156;28;97852;-72
2021/06/17 06:03:49;;;;;;;8.68;7.90;;;;;;;30.21;39.34;100713.47;4940120;28;98297;-72
2021/06/17 06:06:15;;;;;;;8.55;7.65;;;;;;;31.68;36.58;100703.72;4940080;28;98581;-70
2021/06/17 06:08:41;;;;;;;7.50;6.70;;;;;;;32.60;33.96;100709.88;4925034;28;127490;-70
2021/06/17 06:11:07;;;;;;;7.22;6.07;;;;;;;32.04;33.85;100708.31;4939636;28;102282;-71
2021/06/17 06:13:33;;;;;;;6.60;5.95;;;;;;;31.98;34.45;100692.00;4937153;28;127914;-71
2021/06/17 06:15:59;;;;;;;5.78;5.15;;;;;;;33.30;31.07;100697.63;4941617;28;98010;-70
2021/06/17 06:18:26;;;;;;;6.90;5.25;;;;;;;33.79;31.11;100698.97;4922495;28;127341;-71
2021/06/17 06:20:56;;;;;;;5.68;5.18;;;;;;;33.30;32.35;100697.63;4924211;28;98132;-71
2021/06/17 06:23:23;;;;;;;6.43;4.90;;;;;;;32.85;32.69;100686.53;4941812;28;98934;-71
2021/06/17 06:25:49;;;;;;;5.07;4.68;;;;;;;33.85;30.69;100685.34;4943536;28;98517;-72
2021/06/17 06:28:16;;;;;;;5.38;4.28;;;;;;;34.97;28.08;100690.69;4930984;28;98316;-70
2021/06/17 06:30:42;;;;;;;5.07;4.43;;;;;;;35.02;28.24;100685.44;4922891;28;107153;-71
2021/06/17 06:33:08;;;;;;;5.03;4.13;;;;;;;35.71;25.96;100693.22;4930172;28;107536;-71
2021/06/17 06:35:34;;;;;;;4.68;4.18;;;;;;;34.37;28.29;100693.34;4925130;28;99612;-70
2021/06/17 06:38:02;;;;;;;4.45;4.05;;;;;;;33.50;28.14;100681.84;4918612;28;98164;-71
2021/06/17 06:40:28;;;;;;;5.18;4.22;;;;;;;32.42;30.92;100678.56;4921913;28;98021;-72
2021/06/17 06:42:55;;;;;;;5.80;4.15;;;;;;;31.90;31.77;100678.53;4933141;28;98087;-70
2021/06/17 06:45:22;;;;;;;5.10;4.10;;;;;;;31.69;31.73;100685.00;4940579;28;99049;-70
2021/06/17 06:47:48;;;;;;;5.78;4.10;;;;;;;30.91;33.35;100686.88;4942279;28;98633;-71
2021/06/17 06:50:15;;;;;;;4.55;4.10;;;;;;;31.16;31.79;100683.22;4938166;28;99623;-71
2021/06/17 06:52:41;;;;;;;4.30;3.90;;;;;;;30.86;32.65;100686.50;4921853;28;98481;-70
2021/06/17 06:55:08;;;;;;;4.78;3.83;;;;;;;30.89;32.13;100682.88;4941903;28;126558;-70
2021/06/17 06:57:35;;;;;;;5.82;4.40;;;;;;;30.65;32.73;100671.38;4941271;28;98039;-72
2021/06/17 07:00:01;;;;;;;7.30;6.22;;;;;;;31.63;32.03;100676.28;4942705;28;97866;-70
2021/06/17 07:02:27;;;;;;;6.05;4.65;;;;;;;31.51;32.32;100687.88;4942589;28;98322;-72
2021/06/17 07:04:53;;;;;;;6.47;4.22;;;;;;;32.40;31.03;100675.41;4938917;28;126509;-72
2021/06/17 07:07:19;;;;;;;6.28;4.13;;;;;;;31.45;31.09;100681.16;4932484;28;128389;-72
2021/06/17 07:09:45;;;;;;;6.57;4.30;;;;;;;31.77;30.11;100690.13;4940629;28;112574;-68
2021/06/17 07:12:12;;;;;;;4.75;3.72;;;;;;;31.21;32.54;100685.59;4891343;28;108890;-70
2021/06/17 07:14:38;;;;;;;6.88;3.97;;;;;;;31.65;31.15;100684.25;4938349;28;101198;-71
2021/06/17 07:17:04;;;;;;;6.38;4.18;;;;;;;31.84;31.19;100682.94;4938405;28;126323;-71
2021/06/17 07:19:30;;;;;;;6.57;4.00;;;;;;;30.72;32.22;100693.63;4922859;28;110121;-69
2021/06/17 07:21:58;;;;;;;5.65;3.88;;;;;;;31.99;30.89;100679.69;4916385;28;98549;-69
2021/06/17 07:24:24;;;;;;;10.02;5.00;;;;;;;31.78;30.99;100688.91;4924870;28;98555;-71
2021/06/17 07:26:51;;;;;;;5.70;4.15;;;;;;;31.41;30.67;100691.53;4903563;28;126734;-69
2021/06/17 07:29:17;;;;;;;5.78;4.10;;;;;;;31.60;30.41;100685.47;4943053;28;98093;-72
2021/06/17 07:31:45;;;;;;;5.05;4.53;;;;;;;31.67;30.17;100692.97;4939811;28;126665;-73
2021/06/17 07:34:11;;;;;;;5.70;4.20;;;;;;;31.33;35.68;100693.53;4921284;28;127507;-74
2021/06/17 07:36:40;;;;;;;6.75;4.25;;;;;;;31.32;33.31;100688.34;4922203;28;98491;-73
2021/06/17 07:39:08;;;;;;;4.30;3.70;;;;;;;31.27;31.18;100683.97;4904107;28;99025;-72
2021/06/17 07:41:35;;;;;;;4.28;3.80;;;;;;;31.43;31.59;100683.53;4921356;28;98543;-75
2021/06/17 07:44:01;;;;;;;4.13;3.50;;;;;;;31.85;29.29;100679.75;4939963;28;98466;-77
2021/06/17 07:46:27;;;;;;;4.28;3.38;;;;;;;31.43;28.88;100683.53;4940056;28;97876;-73
2021/06/17 07:48:54;;;;;;;3.80;3.38;;;;;;;32.00;28.87;100686.03;4942786;28;97793;-71
2021/06/17 07:51:20;;;;;;;4.60;3.50;;;;;;;33.03;26.39;100678.00;4941605;28;98338;-75
2021/06/17 07:53:46;;;;;;;4.75;3.25;;;;;;;33.24;27.06;100681.31;4941772;28;110545;-75
2021/06/17 07:56:12;;;;;;;4.82;3.45;;;;;;;32.90;26.99;100684.09;4933706;28;98598;-74
2021/06/17 07:58:42;;;;;;;4.13;3.58;;;;;;;34.08;26.01;100682.63;4921523;28;107703;-69
2021/06/17 08:01:09;;;;;;;3.90;3.50;;;;;;;34.29;25.56;100672.31;4922180;28;97941;-76
2021/06/17 08:03:35;;;;;;;3.83;3.50;;;;;;;34.75;25.30;100679.13;4923137;28;98430;-70
2021/06/17 08:06:01;;;;;;;5.18;3.40;;;;;;;33.76;26.46;100669.09;4903205;28;127232;-70
2021/06/17 08:08:27;;;;;;;4.18;3.40;;;;;;;34.60;25.05;100664.59;4932011;28;118071;-75
2021/06/17 08:10:53;;;;;;;6.25;3.35;;;;;;;35.68;23.39;100666.81;4908399;28;127175;-75
2021/06/17 08:13:19;;;;;;;6.05;3.60;;;;;;;35.26;24.27;100660.94;4926447;28;122845;-75
2021/06/17 08:15:46;;;;;;;3.85;3.42;;;;;;;35.85;25.10;100664.84;4921989;28;97947;-70
2021/06/17 08:18:12;;;;;;;4.47;3.55;;;;;;;36.04;23.45;100654.81;4933788;28;97947;-75
2021/06/17 08:20:38;;;;;;;7.35;3.70;;;;;;;37.53;21.69;100666.03;4938721;28;98940;-71
2021/06/17 08:23:04;;;;;;;3.50;3.20;;;;;;;36.64;22.15;100662.94;4936832;28;119780;-75
2021/06/17 08:25:32;;;;;;;4.07;3.25;;;;;;;35.94;22.68;100655.84;4924496;28;98149;-69
2021/06/17 08:28:03;;;;;;;4.75;3.20;;;;;;;35.14;22.51;100653.19;4927970;28;97954;-73
2021/06/17 08:30:29;;;;;;;5.88;3.28;;;;;;;36.08;21.71;100661.13;4933195;28;100062;-74
2021/06/17 08:32:55;;;;;;;3.60;3.30;;;;;;;36.33;22.43;100657.69;4923388;28;104760;-71
2021/06/17 08:35:21;;;;;;;4.47;3.75;;;;;;;36.70;21.28;100659.13;4921832;28;122052;-68
2021/06/17 08:37:47;;;;;;;4.93;3.20;;;;;;;35.59;22.49;100666.66;4905797;28;118522;-74
2021/06/17 08:40:14;;;;;;;5.32;3.35;;;;;;;35.68;22.14;100666.03;4930106;28;128600;-74
2021/06/17 08:42:40;;;;;;;3.35;3.05;;;;;;;36.24;21.27;100663.16;4924311;28;99085;-73
2021/06/17 08:45:09;;;;;;;3.33;3.03;;;;;;;36.45;20.93;100656.97;4940826;28;98343;-73
2021/06/17 08:47:37;;;;;;;3.40;3.10;;;;;;;36.45;20.85;100673.81;4923095;28;98061;-74
2021/06/17 08:50:08;;;;;;;3.92;3.17;;;;;;;36.71;21.04;100666.34;4939252;28;99088;-71
2021/06/17 08:52:39;;;;;;;4.60;3.35;;;;;;;38.28;19.89;100678.50;4939108;28;98200;-71
2021/06/17 08:55:15;;;;;;;4.53;3.22;;;;;;;38.72;19.20;100663.75;4939239;28;97994;-71
2021/06/17 08:57:41;;;;;;;5.15;3.25;;;;;;;37.81;19.45;100667.97;4939632;28;99321;-70
2021/06/17 09:00:31;;;;;;;4.50;3.10;;;;;;;39.01;18.90;100675.56;4939841;28;124966;-74
2021/06/17 09:03:05;;;;;;;3.30;3.00;;;;;;;39.21;18.50;100683.69;4938342;28;98517;-71
2021/06/17 09:05:33;;;;;;;3.25;3.00;;;;;;;38.70;19.26;100667.03;4937027;28;98275;-70
2021/06/17 09:07:59;;;;;;;3.20;2.90;;;;;;;38.15;18.48;100666.47;4941333;28;97953;-75
2021/06/17 09:10:26;;;;;;;3.35;2.97;;;;;;;38.54;20.11;100667.97;4921031;28;97890;-74
2021/06/17 09:12:55;;;;;;;3.75;2.90;;;;;;;39.85;18.65;100674.81;4931785;28;128173;-75
2021/06/17 09:15:52;;;;;;;3.72;2.90;;;;;;;39.74;17.90;100663.97;4931245;28;99610;-71
2021/06/17 09:18:34;;;;;;;3.30;2.88;;;;;;;38.43;20.51;100663.97;4938130;28;98271;-74
2021/06/17 09:21:01;;;;;;;4.22;3.17;;;;;;;38.22;19.63;100665.47;4933697;28;98700;-69
2021/06/17 09:23:42;;;;;;;4.38;3.33;;;;;;;36.64;21.04;100654.53;4938568;28;99099;-70
2021/06/17 09:26:20;;;;;;;4.28;3.45;;;;;;;36.57;21.31;100661.09;4940649;28;97892;-74
2021/06/17 09:29:07;;;;;;;4.65;3.45;;;;;;;36.62;22.27;100652.94;4939367;28;97761;-70
2021/06/17 09:31:41;;;;;;;3.40;3.10;;;;;;;36.13;21.71;100652.19;4940475;28;99042;-69
2021/06/17 09:34:08;;;;;;;3.58;3.28;;;;;;;37.75;20.38;100655.69;4938586;28;98452;-70
2021/06/17 09:36:35;;;;;;;4.18;3.58;;;;;;;37.20;20.77;100652.13;4940470;28;98411;-69
2021/06/17 09:39:09;;;;;;;5.10;3.33;;;;;;;37.16;20.84;100665.50;4934429;28;97987;-73
2021/06/17 09:41:37;;;;;;;5.10;3.42;;;;;;;37.64;20.51;100669.28;4907404;28;98771;-69
2021/06/17 09:44:06;;;;;;;4.68;3.30;;;;;;;36.84;20.93;100658.75;4918633;28;98396;-70
2021/06/17 09:46:32;;;;;;;5.88;3.45;;;;;;;37.00;20.09;100648.72;4921476;28;98238;-72
2021/06/17 09:49:06;;;;;;;3.22;2.92;;;;;;;38.26;18.51;100661.28;4924024;28;99079;-73
2021/06/17 09:51:40;;;;;;;4.68;3.33;;;;;;;37.52;20.44;100648.38;4912455;28;98198;-68
2021/06/17 09:54:09;;;;;;;4.70;2.97;;;;;;;38.14;19.15;100666.94;4923771;28;98743;-70
2021/06/17 09:56:36;;;;;;;3.22;2.95;;;;;;;37.27;19.45;100656.75;4924441;28;98343;-72
2021/06/17 09:59:04;;;;;;;3.60;3.10;;;;;;;38.93;17.84;100654.56;4924098;28;97745;-69
2021/06/17 10:01:34;;;;;;;4.93;3.22;;;;;;;38.02;19.17;100662.91;4924710;28;105175;-69
2021/06/17 10:04:11;;;;;;;3.40;3.10;;;;;;;39.17;19.36;100652.03;4922868;28;98334;-73
2021/06/17 10:06:40;;;;;;;3.17;2.88;;;;;;;36.97;20.25;100647.59;4923883;28;116342;-73
2021/06/17 10:09:13;;;;;;;3.53;3.22;;;;;;;38.35;19.16;100652.16;4944198;28;98214;-69
2021/06/17 10:11:41;;;;;;;5.07;3.30;;;;;;;39.85;17.68;100654.28;4944036;28;98794;-70
2021/06/17 10:14:07;;;;;;;4.13;3.20;;;;;;;39.21;17.86;100649.88;4943364;28;98728;-73
2021/06/17 10:16:34;;;;;;;6.13;3.70;;;;;;;38.72;19.47;100660.94;4944015;28;98735;-70
2021/06/17 10:19:01;;;;;;;3.90;3.50;;;;;;;40.33;17.82;100657.56;4926387;28;97858;-68
2021/06/17 10:21:28;;;;;;;3.92;3.25;;;;;;;39.99;17.62;100653.69;4922483;28;97759;-69
2021/06/17 10:23:54;;;;;;;4.95;3.50;;;;;;;38.70;19.33;100643.72;4925066;28;97988;-72
2021/06/17 10:26:23;;;;;;;4.10;3.80;;;;;;;39.62;18.74;100647.94;4922238;28;98176;-72
2021/06/17 10:28:54;;;;;;;3.72;3.22;;;;;;;40.04;18.31;100638.97;4906565;28;98241;-70
2021/06/17 10:31:44;;;;;;;4.47;3.25;;;;;;;40.96;16.83;100637.00;4942481;28;98843;-72
2021/06/17 10:34:26;;;;;;;3.93;3.40;;;;;;;40.18;17.57;100638.41;4943193;28;98149;-72
2021/06/17 10:37:28;;;;;;;3.83;3.22;;;;;;;40.25;18.35;100631.69;4944394;28;97983;-69
2021/06/17 10:40:09;;;;;;;4.35;3.67;;;;;;;37.79;20.52;100619.03;4925690;28;97864;-69
2021/06/17 10:42:39;;;;;;;5.80;3.75;;;;;;;39.37;18.98;100634.03;4943526;28;98646;-73
2021/06/17 10:45:27;;;;;;;3.97;3.55;;;;;;;40.02;18.70;100616.09;4941303;28;98425;-71
2021/06/17 10:47:56;;;;;;;4.00;3.60;;;;;;;38.79;19.91;100630.53;4942551;28;100015;-70
2021/06/17 10:50:46;;;;;;;6.93;3.88;;;;;;;38.21;20.06;100624.50;4943318;28;97707;-70
2021/06/17 10:53:28;;;;;;;4.50;3.88;;;;;;;37.97;20.71;100618.50;4930836;28;98784;-71
2021/06/17 10:56:06;;;;;;;4.38;3.97;;;;;;;38.34;20.80;100613.25;4923214;28;98229;-71
2021/06/17 10:58:40;;;;;;;4.93;4.00;;;;;;;39.38;19.76;100611.03;4929463;28;98081;-71
2021/06/17 11:01:31;;;;;;;6.50;3.60;;;;;;;39.60;18.78;100627.84;4923266;28;97960;-71
2021/06/17 11:04:15;;;;;;;4.22;3.70;;;;;;;38.27;21.45;100595.31;4922428;28;98424;-71
2021/06/17 11:06:56;;;;;;;6.07;3.50;;;;;;;39.26;19.23;100601.44;4921040;28;99536;-71
2021/06/17 11:09:35;;;;;;;4.03;3.65;;;;;;;38.39;19.92;100590.13;4922864;28;98649;-71
2021/06/17 11:12:13;;;;;;;3.78;3.00;;;;;;;37.86;19.74;100603.97;4923424;28;98026;-71
2021/06/17 11:14:41;;;;;;;4.95;3.30;;;;;;;37.94;18.91;100596.91;4939223;28;98898;-71
2021/06/17 11:17:32;;;;;;;4.32;3.38;;;;;;;38.80;19.33;100591.91;4942903;28;99588;-71
2021/06/17 11:20:20;;;;;;;3.88;3.15;;;;;;;38.55;20.34;100595.56;4942696;28;97897;-71
2021/06/17 11:22:48;;;;;;;5.70;3.47;;;;;;;38.20;18.92;100595.59;4912265;28;97930;-71
2021/06/17 11:25:17;;;;;;;3.50;2.95;;;;;;;37.76;20.04;100581.34;4942338;28;98957;-70
2021/06/17 11:28:05;;;;;;;3.53;3.13;;;;;;;37.88;20.03;100579.78;4943038;28;98224;-75